Pagrindinis puslapis
METAR-TAF:

METAR-TAF

Oro uostai :

Puntilla, Aliaska, Jungtinės Amerikos Valstijos

platuma: 62-06N, ilguma: 152-45W, Aukštis: 560 m

Dabartinis oras

Ataskaita buvo paskelbta 1 valandą ir 41 minutes, ne 19:00 UTC
Ramus vėjas
Temperatūra -6°C
Drėgmė 100%
Slėgis 1029 hPa
Matomumas: 40.2 km
Giedras dangus

METAR: PAPT 221900Z 00000KT 25SM SKC M06/M06 A3039 RMK NO SPECI.

Laikas: 12:41 (20:41 UTC)


TAF: trūkstamas

Orai ataskaitas ir orų prognozės (METAR, TAF).

turimą stotys yra geltonos ir raudonos taškus žemėlapyje.

Perkelti pele per norėdami pamatyti stoties vardą.

Tada spustelėkite, norėdami matyti oro stebėjimo ir prognozės.

Norėdami pakeisti žemėlapį: spustelėkite ant žalios mygtukų su juodo kryžiaus žemyn,; žalią mygtuką su brūkšneliu, jei norite nutolinti; arba žalių rodyklių gretimoms žemėlapius.


METAR-TAF: